Time;durP1;ratioP1;P1;durP2;ratioP2;P2;SDS_P1;SDS_P2;PMS_P1;PMS_P2;Temp;Humidity;BMP_temperature;BMP_pressure;BME280_temperature;BME280_humidity;BME280_pressure;Samples;Min_cycle;Max_cycle;Signal;HPM_P1;HPM_P2
2023/02/15 00:02:02;;;;;;;31.38;12.80;;;;;;;-1.50;100.00;97676.78;5059591;28;20045;-74
2023/02/15 00:04:45;;;;;;;23.00;11.65;;;;;;;-1.39;100.00;97673.47;5059211;28;20044;-75
2023/02/15 00:07:13;;;;;;;28.23;13.95;;;;;;;-1.32;100.00;97670.75;5057592;28;20056;-74
2023/02/15 00:09:40;;;;;;;31.67;13.77;;;;;;;-1.25;100.00;97670.72;5058800;28;20044;-74
2023/02/15 00:12:06;;;;;;;34.60;14.82;;;;;;;-1.20;100.00;97668.25;5057392;28;20052;-75
2023/02/15 00:14:34;;;;;;;39.80;14.73;;;;;;;-1.18;100.00;97667.03;5057507;28;20452;-75
2023/02/15 00:17:01;;;;;;;30.95;14.55;;;;;;;-1.17;100.00;97668.66;5057556;28;20056;-74
2023/02/15 00:19:27;;;;;;;27.77;13.95;;;;;;;-1.11;100.00;97672.34;5059051;28;20037;-74
2023/02/15 00:21:54;;;;;;;47.38;16.17;;;;;;;-1.19;100.00;97664.56;5059310;28;20045;-75
2023/02/15 00:24:20;;;;;;;39.83;16.33;;;;;;;-1.28;100.00;97660.47;5057768;28;20048;-75
2023/02/15 00:26:48;;;;;;;31.38;14.50;;;;;;;-1.15;100.00;97665.75;5057803;28;20433;-75
2023/02/15 00:29:16;;;;;;;34.42;14.48;;;;;;;-1.13;100.00;97669.06;5037185;28;20053;-74
2023/02/15 00:31:44;;;;;;;53.08;16.35;;;;;;;-1.17;100.00;97663.31;5037210;28;20045;-75
2023/02/15 00:34:13;;;;;;;28.00;14.27;;;;;;;-1.09;100.00;97664.94;5055063;28;20130;-75
2023/02/15 00:36:40;;;;;;;38.53;14.15;;;;;;;-1.14;100.00;97662.09;5057655;28;20040;-74
2023/02/15 00:39:06;;;;;;;28.65;14.52;;;;;;;-1.11;100.00;97657.13;5056821;28;20049;-75
2023/02/15 00:41:34;;;;;;;49.10;15.45;;;;;;;-1.07;100.00;97661.00;5056147;28;20067;-75
2023/02/15 00:44:00;;;;;;;35.22;16.45;;;;;;;-1.11;100.00;97658.97;5054653;28;20048;-74
2023/02/15 00:46:27;;;;;;;48.92;15.98;;;;;;;-1.12;100.00;97662.69;5054462;28;20045;-74
2023/02/15 00:48:55;;;;;;;37.22;15.90;;;;;;;-1.10;100.00;97647.25;5054075;28;20135;-75
2023/02/15 00:51:21;;;;;;;29.42;15.55;;;;;;;-1.04;100.00;97651.75;5052854;28;21821;-74
2023/02/15 00:53:48;;;;;;;54.15;17.08;;;;;;;-1.01;100.00;97645.97;5052759;28;20044;-74
2023/02/15 00:56:15;;;;;;;30.63;15.70;;;;;;;-0.93;100.00;97643.06;5051422;28;20059;-75
2023/02/15 00:58:42;;;;;;;64.88;17.00;;;;;;;-0.94;100.00;97636.09;5052501;28;20048;-75
2023/02/15 01:01:10;;;;;;;51.20;17.23;;;;;;;-0.92;100.00;97639.34;5051482;28;20041;-74
2023/02/15 01:03:37;;;;;;;29.75;15.45;;;;;;;-0.86;100.00;97633.16;5051494;28;20045;-74
2023/02/15 01:06:05;;;;;;;37.65;14.50;;;;;;;-0.93;100.00;97632.38;5052224;28;20041;-75
2023/02/15 01:08:32;;;;;;;35.65;15.80;;;;;;;-0.93;100.00;97627.03;5051882;28;20493;-75
2023/02/15 01:11:04;;;;;;;30.13;14.70;;;;;;;-0.94;100.00;97620.03;5051831;28;20048;-72
2023/02/15 01:13:31;;;;;;;34.42;15.32;;;;;;;-0.97;100.00;97625.81;5051756;28;20472;-74
2023/02/15 01:15:58;;;;;;;35.97;14.82;;;;;;;-0.95;100.00;97620.22;5051675;28;20420;-75
2023/02/15 01:18:24;;;;;;;26.63;13.27;;;;;;;-0.87;100.00;97626.16;5051836;28;20072;-75
2023/02/15 01:20:50;;;;;;;29.60;14.35;;;;;;;-0.84;100.00;97617.69;5052127;28;20433;-75
2023/02/15 01:23:18;;;;;;;28.48;13.45;;;;;;;-0.81;100.00;97619.97;5051575;28;20052;-73
2023/02/15 01:25:45;;;;;;;25.73;13.75;;;;;;;-0.84;100.00;97620.38;5052109;28;20047;-75
2023/02/15 01:28:11;;;;;;;29.50;14.27;;;;;;;-0.81;100.00;97617.28;5051421;28;20052;-75
2023/02/15 01:30:38;;;;;;;27.23;14.02;;;;;;;-0.82;100.00;97612.97;5051983;28;20400;-72
2023/02/15 01:33:04;;;;;;;27.60;13.93;;;;;;;-0.87;100.00;97610.13;5050988;28;20080;-73
2023/02/15 01:35:31;;;;;;;24.77;13.73;;;;;;;-0.84;100.00;97603.50;5052039;28;20045;-73
2023/02/15 01:37:58;;;;;;;35.28;14.15;;;;;;;-0.88;100.00;97603.13;5051634;28;20045;-73
2023/02/15 01:40:26;;;;;;;28.55;13.60;;;;;;;-0.87;100.00;97604.78;5051029;28;20044;-73
2023/02/15 01:42:53;;;;;;;25.23;13.35;;;;;;;-0.84;100.00;97604.31;5051565;28;20049;-75
2023/02/15 01:45:24;;;;;;;28.23;14.15;;;;;;;-0.81;100.00;97608.44;5051330;28;20163;-73
2023/02/15 01:47:55;;;;;;;45.17;14.88;;;;;;;-0.87;100.00;97610.13;5052051;28;20059;-73
2023/02/15 01:50:26;;;;;;;32.20;14.82;;;;;;;-0.89;100.00;97604.19;5051488;28;20052;-75
2023/02/15 01:52:56;;;;;;;32.42;13.88;;;;;;;-0.96;100.00;97595.34;5051230;28;20041;-73
2023/02/15 01:55:27;;;;;;;27.35;14.70;;;;;;;-1.00;100.00;97594.13;5050976;28;20041;-73
2023/02/15 01:57:54;;;;;;;40.88;14.32;;;;;;;-1.04;100.00;97592.94;5038493;28;20048;-74
2023/02/15 02:00:21;;;;;;;28.70;14.07;;;;;;;-1.04;100.00;97584.94;5050659;28;20048;-75
2023/02/15 02:02:51;;;;;;;29.67;14.13;;;;;;;-1.03;100.00;97583.88;5051117;28;20045;-74
2023/02/15 02:05:18;;;;;;;37.75;14.75;;;;;;;-1.07;100.00;97571.97;5050344;28;20496;-73
2023/02/15 02:07:46;;;;;;;72.97;15.60;;;;;;;-1.30;100.00;97571.69;5051070;28;20056;-75
2023/02/15 02:10:15;;;;;;;31.83;14.40;;;;;;;-1.16;100.00;97567.91;5050245;28;20087;-72
2023/02/15 02:12:46;;;;;;;29.05;14.48;;;;;;;-1.06;100.00;97570.94;5050791;28;20664;-75
2023/02/15 02:15:13;;;;;;;36.63;15.48;;;;;;;-1.02;100.00;97564.13;5050184;28;20048;-75
2023/02/15 02:17:50;;;;;;;28.48;14.07;;;;;;;-1.00;100.00;97567.41;5050619;28;20045;-74
2023/02/15 02:20:29;;;;;;;40.67;15.00;;;;;;;-1.07;100.00;97567.44;5050271;28;20045;-75
2023/02/15 02:23:24;;;;;;;34.00;14.63;;;;;;;-1.06;100.00;97563.72;5050510;28;20053;-74
2023/02/15 02:26:20;;;;;;;28.00;14.75;;;;;;;-1.06;100.00;97568.25;5050647;28;20059;-73
2023/02/15 02:29:14;;;;;;;30.75;13.05;;;;;;;-1.16;100.00;97567.91;5051120;28;20440;-75
2023/02/15 02:32:03;;;;;;;41.95;14.52;;;;;;;-1.19;100.00;97560.34;5050904;28;20052;-74
2023/02/15 02:34:35;;;;;;;28.80;13.10;;;;;;;-1.17;100.00;97567.09;5043222;28;20048;-73
2023/02/15 02:37:13;;;;;;;25.50;12.77;;;;;;;-1.15;100.00;97564.19;5054067;28;20044;-76
2023/02/15 02:39:50;;;;;;;26.25;13.10;;;;;;;-1.18;100.00;97559.28;5059091;28;20056;-75
2023/02/15 02:42:21;;;;;;;74.03;14.98;;;;;;;-1.39;100.00;97563.09;5058524;28;20049;-75
2023/02/15 02:44:52;;;;;;;35.28;12.80;;;;;;;-1.34;100.00;97555.25;5058536;28;20052;-74
2023/02/15 02:47:24;;;;;;;31.80;12.75;;;;;;;-1.40;100.00;97561.47;5057136;28;20045;-75
2023/02/15 02:50:00;;;;;;;23.65;12.98;;;;;;;-1.37;100.00;97556.50;5056406;28;20095;-75
2023/02/15 02:52:39;;;;;;;36.65;13.70;;;;;;;-1.48;100.00;97548.31;5051383;28;20037;-75
2023/02/15 02:55:10;;;;;;;27.33;13.52;;;;;;;-1.40;100.00;97550.78;5049983;28;20099;-75
2023/02/15 02:57:40;;;;;;;28.13;13.82;;;;;;;-1.35;100.00;97551.78;5050725;28;20052;-75
2023/02/15 03:00:09;;;;;;;26.60;14.02;;;;;;;-1.29;100.00;97550.09;5049710;28;20053;-75
2023/02/15 03:02:41;;;;;;;26.58;13.30;;;;;;;-1.27;100.00;97552.53;5049814;28;20052;-74
2023/02/15 03:05:14;;;;;;;68.47;15.05;;;;;;;-1.77;100.00;97547.00;5049586;28;20053;-74
2023/02/15 03:07:42;;;;;;;32.15;13.85;;;;;;;-1.76;100.00;97545.97;5051974;28;20045;-75
2023/02/15 03:10:10;;;;;;;25.38;13.55;;;;;;;-1.65;100.00;97546.13;5049759;28;20111;-75
2023/02/15 03:12:40;;;;;;;74.72;14.45;;;;;;;-1.74;100.00;97543.91;5049798;28;20051;-74
2023/02/15 03:15:11;;;;;;;26.85;13.48;;;;;;;-1.58;100.00;97538.91;5049570;28;20079;-74
2023/02/15 03:17:43;;;;;;;25.15;12.25;;;;;;;-1.53;100.00;97538.28;5050062;28;20044;-75
2023/02/15 03:20:15;;;;;;;22.90;12.32;;;;;;;-1.54;100.00;97538.50;5049206;28;20055;-74
2023/02/15 03:22:48;;;;;;;24.88;12.77;;;;;;;-1.51;100.00;97543.41;5051219;28;20697;-74
2023/02/15 03:25:20;;;;;;;51.35;14.20;;;;;;;-1.67;100.00;97544.69;5052003;28;20048;-74
2023/02/15 03:27:50;;;;;;;27.52;13.38;;;;;;;-1.89;100.00;97542.28;5054324;28;20045;-75
2023/02/15 03:30:22;;;;;;;27.58;12.65;;;;;;;-1.82;100.00;97536.13;5052644;28;20475;-75
2023/02/15 03:32:50;;;;;;;26.77;13.57;;;;;;;-1.76;100.00;97541.44;5050428;28;20390;-74
2023/02/15 03:35:20;;;;;;;26.85;13.40;;;;;;;-1.76;100.00;97540.63;5049952;28;20056;-75
2023/02/15 03:37:52;;;;;;;27.58;14.35;;;;;;;-1.69;100.00;97546.75;5049430;28;20052;-74
2023/02/15 03:43:14;;;;;;;32.60;14.13;;;;;;;-1.62;100.00;97543.06;5049679;28;20258;-74
2023/02/15 03:45:54;;;;;;;;;;;;;;;-1.54;100.00;97555.34;5050307;28;20501;-74
2023/02/15 03:48:23;;;;;;;22.85;12.27;;;;;;;-1.53;100.00;97548.97;5049028;28;19920;-74
2023/02/15 03:53:41;;;;;;;25.65;12.65;;;;;;;-1.50;100.00;97551.22;5049716;28;20052;-75
2023/02/15 03:56:07;;;;;;;26.60;13.15;;;;;;;-1.49;100.00;97552.03;5048679;28;20056;-74
2023/02/15 04:04:29;;;;;;;56.03;14.85;;;;;;;-1.71;100.00;97562.19;5005978;28;20610;-74
2023/02/15 04:06:57;;;;;;;64.18;14.85;;;;;;;-1.73;100.00;97559.72;5006301;28;20045;-74
2023/02/15 04:12:08;;;;;;;50.30;15.05;;;;;;;-2.32;100.00;97565.16;5028849;28;20325;-74
2023/02/15 04:17:19;;;;;;;32.92;15.05;;;;;;;-2.24;100.00;97556.97;5052208;28;20570;-74
2023/02/15 04:25:15;;;;;;;31.92;14.32;;;;;;;-2.23;100.00;97555.94;5052406;28;20052;-74
2023/02/15 04:27:44;;;;;;;70.78;16.58;;;;;;;-2.47;100.00;97557.38;5053154;28;20045;-74
2023/02/15 04:30:13;;;;;;;33.45;14.85;;;;;;;-2.27;100.00;97562.69;5052144;28;20485;-74
2023/02/15 04:32:40;;;;;;;26.73;13.18;;;;;;;-2.08;100.00;97559.19;5052438;28;20056;-74
2023/02/15 04:35:07;;;;;;;29.08;14.55;;;;;;;-1.98;100.00;97550.75;5052091;28;20052;-74
2023/02/15 04:37:35;;;;;;;33.55;16.25;;;;;;;-1.99;100.00;97551.75;5052285;28;20040;-74
2023/02/15 04:40:02;;;;;;;30.45;14.25;;;;;;;-1.85;100.00;97554.19;5052118;28;20044;-75
2023/02/15 04:42:29;;;;;;;30.17;14.60;;;;;;;-1.75;100.00;97547.59;5052755;28;20485;-74
2023/02/15 04:44:56;;;;;;;33.08;14.20;;;;;;;-1.72;100.00;97548.00;5052483;28;20382;-74
2023/02/15 04:47:22;;;;;;;35.30;14.20;;;;;;;-2.07;100.00;97550.16;5051639;28;20052;-74
2023/02/15 04:49:49;;;;;;;44.20;14.65;;;;;;;-2.14;100.00;97555.50;5052125;28;20067;-74
2023/02/15 04:52:17;;;;;;;34.03;14.65;;;;;;;-1.98;100.00;97551.59;5051617;28;20088;-74
2023/02/15 04:54:45;;;;;;;27.40;13.57;;;;;;;-1.84;100.00;97552.34;5052171;28;20041;-74
2023/02/15 04:57:11;;;;;;;24.35;13.05;;;;;;;-1.77;100.00;97555.03;5051431;28;20060;-74
2023/02/15 04:59:38;;;;;;;27.75;14.05;;;;;;;-1.71;100.00;97548.84;5052135;28;20049;-74
2023/02/15 05:02:04;;;;;;;32.45;15.45;;;;;;;-1.78;100.00;97550.69;5051550;28;20052;-74
2023/02/15 05:04:31;;;;;;;35.63;12.50;;;;;;;-1.81;100.00;97556.47;5051977;28;20056;-75
2023/02/15 05:06:57;;;;;;;28.95;13.85;;;;;;;-1.79;100.00;97557.06;5052119;28;20044;-74
2023/02/15 05:09:24;;;;;;;27.52;13.10;;;;;;;-1.80;100.00;97547.41;5051474;28;20507;-74
2023/02/15 05:11:52;;;;;;;22.85;12.02;;;;;;;-1.74;100.00;97557.25;5051622;28;20045;-75
2023/02/15 05:14:18;;;;;;;25.90;13.52;;;;;;;-1.66;100.00;97557.84;5051752;28;20049;-74
2023/02/15 05:16:45;;;;;;;26.70;13.45;;;;;;;-1.60;100.00;97557.00;5051489;28;20041;-74
2023/02/15 05:19:11;;;;;;;25.65;12.57;;;;;;;-1.54;100.00;97555.34;5051691;28;20045;-74
2023/02/15 05:21:38;;;;;;;27.80;12.98;;;;;;;-1.55;100.00;97551.03;5051922;28;20041;-74
2023/02/15 05:28:19;;;;;;;24.83;11.77;;;;;;;-1.51;100.00;97549.59;5049162;28;20045;-75
2023/02/15 05:29:36;;;;;;;27.40;13.27;;;;;;;-1.50;99.97;97555.75;5047991;28;20114;-74
2023/02/15 05:32:04;;;;;;;24.10;12.07;;;;;;;-1.48;100.00;97557.16;5047714;28;20049;-75
2023/02/15 05:34:30;;;;;;;26.52;12.77;;;;;;;-1.48;99.77;97561.69;5048058;28;20049;-75
2023/02/15 05:36:57;;;;;;;31.08;14.30;;;;;;;-1.53;99.76;97562.31;5047896;28;20071;-75
2023/02/15 05:39:23;;;;;;;25.88;12.52;;;;;;;-1.45;99.82;97564.75;5048243;28;20052;-75
2023/02/15 05:41:50;;;;;;;29.00;13.82;;;;;;;-1.59;100.00;97565.84;5048157;28;20045;-75
2023/02/15 05:44:18;;;;;;;25.70;13.25;;;;;;;-1.57;100.00;97566.44;5047442;28;20052;-74
2023/02/15 05:46:44;;;;;;;27.27;13.00;;;;;;;-1.55;99.83;97564.38;5048057;28;20040;-74
2023/02/15 05:49:11;;;;;;;28.73;13.25;;;;;;;-1.57;99.48;97561.09;5047723;28;20049;-74
2023/02/15 05:51:37;;;;;;;24.00;12.43;;;;;;;-1.59;99.31;97568.50;5048318;28;20048;-74
2023/02/15 05:54:04;;;;;;;25.48;12.85;;;;;;;-1.56;99.09;97561.94;5047757;28;20048;-75
2023/02/15 05:56:30;;;;;;;28.15;12.27;;;;;;;-1.79;98.67;97562.41;5048341;28;20056;-74
2023/02/15 05:58:57;;;;;;;27.85;13.80;;;;;;;-1.69;98.99;97570.78;5048380;28;20060;-75
2023/02/15 06:01:25;;;;;;;23.55;12.77;;;;;;;-1.62;99.07;97563.56;5048400;28;20057;-75
2023/02/15 06:03:51;;;;;;;30.70;12.02;;;;;;;-1.66;98.58;97563.19;5047609;28;20057;-75
2023/02/15 06:06:18;;;;;;;25.63;12.70;;;;;;;-1.67;98.88;97566.06;5047668;28;20147;-74
2023/02/15 06:08:44;;;;;;;25.02;13.00;;;;;;;-1.63;99.09;97570.78;5048188;28;20052;-76
2023/02/15 06:11:11;;;;;;;25.58;13.05;;;;;;;-1.59;99.06;97580.00;5047781;28;20049;-75
2023/02/15 06:13:38;;;;;;;23.35;11.75;;;;;;;-1.53;98.91;97574.84;5047564;28;20132;-74
2023/02/15 06:16:04;;;;;;;26.45;12.85;;;;;;;-1.50;98.71;97593.97;5047014;28;20485;-75
2023/02/15 06:18:32;;;;;;;25.65;12.57;;;;;;;-1.54;98.44;97586.56;5047613;28;20041;-75
2023/02/15 06:20:59;;;;;;;24.15;12.05;;;;;;;-1.56;98.52;97586.78;5047306;28;20353;-73
2023/02/15 06:23:25;;;;;;;24.58;12.40;;;;;;;-1.56;98.61;97600.16;5047020;28;20048;-74
2023/02/15 06:25:52;;;;;;;24.27;12.40;;;;;;;-1.60;98.46;97586.38;5047208;28;20698;-74
2023/02/15 06:28:18;;;;;;;26.65;11.90;;;;;;;-1.65;98.48;97588.03;5046580;28;20053;-75
2023/02/15 06:30:45;;;;;;;30.95;13.68;;;;;;;-1.67;98.42;97588.28;5046936;28;20570;-74
2023/02/15 06:33:11;;;;;;;23.38;12.18;;;;;;;-1.69;98.84;97590.31;5045999;28;20069;-74
2023/02/15 06:35:39;;;;;;;24.52;12.20;;;;;;;-1.68;98.71;97588.44;5046967;28;20110;-74
2023/02/15 06:38:06;;;;;;;26.23;11.73;;;;;;;-1.60;98.61;97590.91;5045455;28;20052;-74
2023/02/15 06:40:32;;;;;;;31.40;13.95;;;;;;;-1.56;98.69;97597.47;5047095;28;20049;-74
2023/02/15 06:42:59;;;;;;;31.13;12.90;;;;;;;-1.52;98.87;97585.31;5046508;28;20099;-74
2023/02/15 06:45:25;;;;;;;25.67;13.10;;;;;;;-1.47;98.37;97588.19;5046668;28;20417;-74
2023/02/15 06:47:52;;;;;;;26.95;13.30;;;;;;;-1.40;98.42;97588.19;5046509;28;20048;-74
2023/02/15 06:50:19;;;;;;;28.83;13.32;;;;;;;-1.44;98.78;97582.44;5046225;28;20056;-74
2023/02/15 06:52:46;;;;;;;31.63;13.70;;;;;;;-1.37;99.25;97582.38;5046482;28;20726;-74
2023/02/15 06:55:13;;;;;;;26.50;13.25;;;;;;;-1.29;99.30;97589.38;5046318;28;20048;-74
2023/02/15 06:57:39;;;;;;;28.02;13.70;;;;;;;-1.27;98.96;97587.28;5046367;28;20037;-74
2023/02/15 07:00:07;;;;;;;27.65;13.65;;;;;;;-1.32;98.92;97587.91;5045009;28;20049;-74
2023/02/15 07:02:34;;;;;;;34.42;13.35;;;;;;;-1.37;98.76;97599.25;5045927;28;20059;-74
2023/02/15 07:05:01;;;;;;;40.45;12.95;;;;;;;-1.64;98.41;97597.69;5045145;28;20599;-75
2023/02/15 07:07:27;;;;;;;40.83;13.93;;;;;;;-1.74;98.93;97599.97;5045722;28;20041;-75
2023/02/15 07:09:55;;;;;;;30.40;13.38;;;;;;;-1.66;99.01;97595.25;5044369;28;20135;-74
2023/02/15 07:15:07;;;;;;;29.35;13.93;;;;;;;-1.70;99.46;97594.00;5041684;28;20138;-74
2023/02/15 07:17:34;;;;;;;26.85;12.80;;;;;;;-1.61;99.45;97603.44;5046244;28;20045;-75
2023/02/15 07:20:00;;;;;;;29.92;13.50;;;;;;;-1.54;99.36;97600.75;5045940;28;20552;-75
2023/02/15 07:22:27;;;;;;;51.00;16.08;;;;;;;-1.78;99.87;97596.91;5045475;28;20041;-73
2023/02/15 07:24:55;;;;;;;33.90;14.13;;;;;;;-1.70;100.00;97593.19;5046280;28;20056;-74
2023/02/15 07:27:21;;;;;;;31.75;14.25;;;;;;;-1.74;100.00;97591.97;5045828;28;20727;-73
2023/02/15 07:29:48;;;;;;;39.47;15.57;;;;;;;-1.71;100.00;97591.56;5046273;28;20055;-74
2023/02/15 07:32:15;;;;;;;36.63;15.70;;;;;;;-1.69;99.91;97584.16;5044871;28;20128;-73
2023/02/15 07:34:41;;;;;;;30.40;13.57;;;;;;;-1.64;100.00;97587.81;5044947;28;20052;-74
2023/02/15 07:37:08;;;;;;;37.08;14.80;;;;;;;-1.67;100.00;97592.75;5043043;28;20056;-75
2023/02/15 07:39:34;;;;;;;30.95;14.60;;;;;;;-1.55;99.81;97595.63;5045011;28;20449;-74
2023/02/15 07:42:02;;;;;;;28.30;14.27;;;;;;;-1.46;99.41;97594.34;5044633;28;20080;-74
2023/02/15 07:44:29;;;;;;;42.70;15.98;;;;;;;-1.38;99.34;97592.25;5045138;28;20481;-74
2023/02/15 07:46:56;;;;;;;31.60;13.75;;;;;;;-1.35;99.47;97585.69;5045810;28;20513;-74
2023/02/15 07:49:22;;;;;;;29.73;14.32;;;;;;;-1.30;99.77;97593.91;5046368;28;20132;-75
2023/02/15 07:51:49;;;;;;;32.40;14.70;;;;;;;-1.17;99.89;97595.66;5050219;28;20049;-75
2023/02/15 07:54:15;;;;;;;29.73;14.82;;;;;;;-1.08;99.85;97591.72;5049256;28;20056;-75
2023/02/15 07:56:42;;;;;;;63.25;14.00;;;;;;;-1.32;99.20;97587.91;5050064;28;20507;-75
2023/02/15 07:59:10;;;;;;;36.20;14.70;;;;;;;-1.27;98.97;97587.28;5049444;28;20064;-74
2023/02/15 08:01:39;;;;;;;58.80;13.65;;;;;;;-1.29;98.76;97589.38;5049240;28;20103;-74
2023/02/15 08:04:07;;;;;;;27.20;13.43;;;;;;;-1.28;98.78;97580.31;5043222;28;20053;-74
2023/02/15 08:06:35;;;;;;;35.55;14.25;;;;;;;-1.20;98.57;97582.72;5049635;28;20412;-75
2023/02/15 08:09:03;;;;;;;84.53;14.55;;;;;;;-1.27;97.99;97581.94;5049902;28;20064;-74
2023/02/15 08:11:36;;;;;;;46.25;14.77;;;;;;;-1.36;98.73;97581.34;5049639;28;20855;-75
2023/02/15 08:14:04;;;;;;;41.97;15.15;;;;;;;-1.19;98.36;97579.03;5048661;28;20139;-75
2023/02/15 08:16:34;;;;;;;34.63;13.93;;;;;;;-1.09;98.20;97582.06;5049562;28;20049;-77
2023/02/15 08:19:04;;;;;;;27.90;13.35;;;;;;;-0.99;98.28;97578.91;5049969;28;20056;-75
2023/02/15 08:21:31;;;;;;;51.95;14.57;;;;;;;-1.09;98.42;97574.06;5049562;28;20052;-75
2023/02/15 08:23:59;;;;;;;26.85;13.48;;;;;;;-1.06;98.89;97585.13;5048799;28;20053;-75
2023/02/15 08:26:27;;;;;;;31.15;13.95;;;;;;;-0.99;98.73;97579.75;5048930;28;20052;-75
2023/02/15 08:28:54;;;;;;;40.35;14.93;;;;;;;-1.13;98.74;97580.84;5049289;28;20049;-76
2023/02/15 08:31:21;;;;;;;47.75;16.55;;;;;;;-1.17;98.52;97576.97;5048208;28;20056;-76
2023/02/15 08:33:51;;;;;;;29.92;14.35;;;;;;;-1.04;99.09;97571.56;5046447;28;20055;-75
2023/02/15 08:36:20;;;;;;;29.23;13.40;;;;;;;-1.04;99.22;97566.22;5047298;28;20053;-75
2023/02/15 08:38:47;;;;;;;37.85;15.40;;;;;;;-0.89;98.84;97572.09;5049938;28;20037;-75
2023/02/15 08:41:16;;;;;;;33.78;15.32;;;;;;;-0.86;98.29;97574.31;5049898;28;20053;-75
2023/02/15 08:43:43;;;;;;;27.73;13.73;;;;;;;-0.72;98.54;97571.56;5049543;28;20049;-74
2023/02/15 08:46:11;;;;;;;29.33;13.98;;;;;;;-0.61;98.23;97570.88;5048769;28;20053;-74
2023/02/15 08:48:38;;;;;;;26.35;14.23;;;;;;;-0.66;97.92;97563.50;5049760;28;20114;-75
2023/02/15 08:51:11;;;;;;;28.85;14.45;;;;;;;-0.63;97.94;97563.03;5048761;28;20067;-74
2023/02/15 08:53:39;;;;;;;30.80;15.70;;;;;;;-0.65;97.83;97569.66;5048266;28;20136;-75
2023/02/15 08:56:06;;;;;;;25.83;13.05;;;;;;;-0.66;97.57;97568.03;5048755;28;20703;-75
2023/02/15 08:58:32;;;;;;;28.45;14.10;;;;;;;-0.54;96.84;97563.59;5048677;28;20052;-75
2023/02/15 09:00:59;;;;;;;25.45;12.77;;;;;;;-0.44;96.64;97561.25;5047836;28;20085;-74
2023/02/15 09:03:26;;;;;;;27.85;14.20;;;;;;;-0.37;96.36;97562.00;5048018;28;20049;-74
2023/02/15 09:05:58;;;;;;;30.65;14.35;;;;;;;-0.45;95.08;97559.63;5048744;28;20059;-75
2023/02/15 09:08:26;;;;;;;24.98;12.73;;;;;;;-0.42;94.98;97559.19;5049647;28;20045;-75
2023/02/15 09:10:52;;;;;;;24.10;12.77;;;;;;;-0.28;94.94;97565.25;5048106;28;20641;-75
2023/02/15 09:13:20;;;;;;;37.78;13.80;;;;;;;-0.47;94.66;97560.88;5047481;28;20049;-76
2023/02/15 09:15:46;;;;;;;27.10;13.57;;;;;;;-0.35;94.79;97565.31;5048085;28;20048;-74
2023/02/15 09:18:16;;;;;;;41.00;13.88;;;;;;;-0.40;94.39;97573.19;5048256;28;20057;-74
2023/02/15 09:20:43;;;;;;;26.33;13.20;;;;;;;-0.38;94.16;97565.75;5048188;28;20076;-75
2023/02/15 09:23:10;;;;;;;28.27;13.32;;;;;;;-0.27;93.77;97570.38;5047500;28;20048;-75
2023/02/15 09:25:38;;;;;;;28.20;14.60;;;;;;;-0.50;95.66;97564.81;5048438;28;20047;-74
2023/02/15 09:28:05;;;;;;;32.65;14.20;;;;;;;-0.94;96.16;97573.75;5047907;28;20132;-75
2023/02/15 09:30:31;;;;;;;29.10;14.38;;;;;;;-0.98;98.01;97575.22;5049487;28;20049;-75
2023/02/15 09:32:58;;;;;;;27.88;14.23;;;;;;;-1.02;97.48;97574.00;5049430;28;20052;-76
2023/02/15 09:35:24;;;;;;;30.88;14.98;;;;;;;-1.03;98.88;97583.88;5047944;28;20060;-75
2023/02/15 09:37:50;;;;;;;31.45;15.30;;;;;;;-1.03;99.35;97578.53;5049171;28;20509;-75
2023/02/15 09:40:18;;;;;;;31.45;15.77;;;;;;;-1.14;100.00;97582.72;5047379;28;20448;-75
2023/02/15 09:43:08;;;;;;;41.92;16.20;;;;;;;-0.88;99.07;97575.59;5047460;28;20045;-76
2023/02/15 09:45:50;;;;;;;37.47;16.67;;;;;;;-1.35;100.00;97578.50;5042968;28;20052;-76
2023/02/15 09:48:36;;;;;;;30.35;16.33;;;;;;;-0.83;100.00;97581.09;5048013;28;20056;-76
2023/02/15 09:51:28;;;;;;;28.63;14.68;;;;;;;-0.58;100.00;97573.91;5047559;28;20409;-75
2023/02/15 09:54:11;;;;;;;34.40;15.13;;;;;;;-0.40;99.31;97572.34;5047072;28;20059;-76
2023/02/15 09:56:40;;;;;;;20.58;11.30;;;;;;;-0.19;98.14;97571.16;5031742;28;20498;-76
2023/02/15 09:59:15;;;;;;;25.95;13.73;;;;;;;-0.19;97.80;97571.16;5031556;28;20041;-75
2023/02/15 10:01:50;;;;;;;26.75;14.00;;;;;;;-0.28;96.88;97566.06;5032419;28;20049;-75
2023/02/15 10:04:35;;;;;;;30.98;15.18;;;;;;;-0.04;96.47;97569.78;5052823;28;20048;-75
2023/02/15 10:07:12;;;;;;;27.58;13.93;;;;;;;-0.02;95.94;97564.19;5058491;28;20106;-75
2023/02/15 10:09:59;;;;;;;30.38;14.95;;;;;;;0.22;96.51;97559.84;5057996;28;20045;-75
2023/02/15 10:12:38;;;;;;;25.63;13.25;;;;;;;0.04;94.78;97573.19;5055010;28;20447;-75
2023/02/15 10:15:20;;;;;;;26.92;13.73;;;;;;;0.08;95.79;97563.69;5053999;28;20056;-75
2023/02/15 10:18:00;;;;;;;25.00;12.70;;;;;;;0.19;95.02;97558.41;5055183;28;20052;-76
2023/02/15 10:20:34;;;;;;;25.73;13.52;;;;;;;0.46;94.93;97558.13;5051258;28;20045;-75
2023/02/15 10:23:16;;;;;;;24.42;12.85;;;;;;;0.69;93.75;97550.22;5047331;28;20044;-75
2023/02/15 10:25:47;;;;;;;27.00;13.40;;;;;;;0.73;94.13;97547.88;5046375;28;20051;-76
2023/02/15 10:28:18;;;;;;;23.17;12.95;;;;;;;0.95;92.92;97549.06;5045902;28;20139;-75
2023/02/15 10:30:50;;;;;;;24.15;12.98;;;;;;;0.86;89.98;97555.75;5047419;28;20040;-75
2023/02/15 10:33:38;;;;;;;21.30;12.35;;;;;;;0.64;88.02;97547.38;5045989;28;20140;-75
2023/02/15 10:36:17;;;;;;;22.75;12.70;;;;;;;0.95;88.61;97542.88;5046295;28;20053;-75
2023/02/15 10:38:49;;;;;;;24.70;13.68;;;;;;;0.56;91.05;97545.00;5030219;28;20072;-75
2023/02/15 10:41:28;;;;;;;21.70;12.30;;;;;;;0.85;90.31;97537.22;5028765;28;20520;-76
2023/02/15 10:44:15;;;;;;;22.10;12.68;;;;;;;0.97;89.65;97540.78;5046551;28;20696;-75
2023/02/15 10:46:57;;;;;;;25.67;14.10;;;;;;;1.06;90.22;97538.59;5046374;28;20052;-75
2023/02/15 10:49:54;;;;;;;25.48;13.70;;;;;;;1.04;90.88;97546.84;5046642;28;20049;-75
2023/02/15 10:52:31;;;;;;;26.92;13.95;;;;;;;1.34;91.59;97537.97;5046243;28;20064;-75
2023/02/15 10:55:08;;;;;;;25.90;14.18;;;;;;;1.14;91.61;97533.69;5031193;28;20531;-76
2023/02/15 10:57:47;;;;;;;25.90;13.93;;;;;;;1.43;91.07;97525.84;5046379;28;20045;-75
2023/02/15 11:00:20;;;;;;;24.45;13.10;;;;;;;1.53;91.26;97524.22;5046556;28;20069;-75
2023/02/15 11:03:12;;;;;;;17.90;9.98;;;;;;;1.62;90.77;97519.34;5045695;28;20060;-75
2023/02/15 11:05:45;;;;;;;22.08;13.00;;;;;;;1.70;89.94;97519.00;5046143;28;20045;-76
2023/02/15 11:08:12;;;;;;;27.77;12.30;;;;;;;1.76;89.84;97517.25;5045490;28;20052;-75
2023/02/15 11:10:43;;;;;;;23.67;12.75;;;;;;;1.88;89.55;97518.06;5045422;28;20060;-75
2023/02/15 11:13:14;;;;;;;26.27;13.60;;;;;;;1.96;88.46;97511.53;5045207;28;20527;-75
2023/02/15 11:15:45;;;;;;;20.92;12.13;;;;;;;2.06;87.76;97509.88;5046264;28;20428;-75
2023/02/15 11:18:20;;;;;;;22.73;13.10;;;;;;;1.90;84.59;97504.41;5048847;28;20103;-81
2023/02/15 11:20:54;;;;;;;21.00;12.15;;;;;;;1.97;85.18;97500.53;5046526;28;20106;-75
2023/02/15 11:23:21;;;;;;;22.00;13.20;;;;;;;1.99;84.75;97500.31;5043666;28;20056;-76
2023/02/15 11:25:55;;;;;;;23.33;13.40;;;;;;;1.88;85.50;97498.44;5045633;28;20045;-75
2023/02/15 11:28:28;;;;;;;24.63;13.60;;;;;;;1.77;85.63;97492.81;5045464;28;20053;-76
2023/02/15 11:30:57;;;;;;;26.20;13.52;;;;;;;1.96;85.65;97490.03;5046328;28;20056;-76
2023/02/15 11:33:29;;;;;;;24.88;14.43;;;;;;;2.04;87.28;97489.69;5045500;28;20059;-75
2023/02/15 11:36:01;;;;;;;18.08;10.25;;;;;;;2.17;87.69;97481.34;5045786;28;20566;-75
2023/02/15 11:38:32;;;;;;;29.33;14.50;;;;;;;2.21;87.86;97477.16;5044744;28;20739;-76
2023/02/15 11:41:03;;;;;;;23.85;13.70;;;;;;;2.21;85.87;97476.34;5045757;28;20497;-76
2023/02/15 11:43:36;;;;;;;24.42;13.73;;;;;;;2.29;85.02;97476.75;5045631;28;20045;-76
2023/02/15 11:46:03;;;;;;;;;;;;;;;2.27;84.45;97470.81;5046812;28;20056;-75
2023/02/15 11:48:32;;;;;;;23.95;12.68;;;;;;;2.28;84.68;97469.75;5045947;28;19925;-74
2023/02/15 11:51:00;;;;;;;24.45;13.52;;;;;;;2.41;85.13;97465.19;5045904;28;20056;-73
2023/02/15 11:53:32;;;;;;;22.13;13.20;;;;;;;2.38;85.49;97460.28;5045543;28;20804;-73
2023/02/15 11:55:59;;;;;;;22.13;13.10;;;;;;;2.14;86.28;97460.34;5046464;28;20053;-74